King Salmon, AK

7:54 AM AKDT on August 29, 2015 (GMT -0800)
King Salmon | | Change Station
CLOSE
Current Station
Airport
Location: King Salmon,
Elevation: 46 ft
Nearby Weather Stations

Elev 46 ft 58.68 °N, 156.66 °W | Updated 1 hour ago

Light Rain
Light Rain
46 °F
Feels Like 41 °F
N
9
Wind Variable Wind from East

Today
High -- | Low -- °F
--% Chance of Precip.
Yesterday
High -- | Low -- °F
Precip. -- in
7:18 AM 9:35 PM
Full, 100% visible
Pressure 29.45 in
Visibility 10.0 miles
Clouds Few 600 ft
Overcast 1500 ft
Windchill 41 °F
Dew Point 44 °F
Humidity 93%
Rainfall 0.32 in
Snow Depth Not available.
UV 0 out of 12
Pollen Not available.
Air Quality Not available.
Flu Activity Not available.
METAR PAKN 291454Z 09008KT 10SM -RA FEW006 OVC015 08/07 A2945 RMK AO2 SLP973 P0002 60007 T00780067 56042
Pressure 29.45 in
Visibility 10.0 miles
Clouds Few 600 ft
Overcast 1500 ft
Windchill 41 °F
Dew Point 44 °F
Humidity 93%
Rainfall 0.32 in
Snow Depth Not available.
UV 0 out of 12
Pollen Not available.
Air Quality Not available.
Flu Activity Not available.
METAR PAKN 291454Z 09008KT 10SM -RA FEW006 OVC015 08/07 A2945 RMK AO2 SLP973 P0002 60007 T00780067 56042

10-Day Weather Forecast

×

Almanac

Astronomy

Aug. 29, 2015 Rise Set
Actual Time
Civil Twilight
Nautical Twilight
Astronomical Twilight
Moon
Length of Visible Light
Length of Day
Tomorrow will be .
, % of the Moon is Illuminated

Today's Extremes

State Highs State Lows

Community

WunderPhotos

Upload Photos

1,850,700 photos uploaded!

WunderBlogs® & News

Nearby

Air Quality

  Air Quality AQ Index Pollutant
Not available.

Snow Depth

Station Depth Elevation

Earthquake Activity

City Distance Mag. Time & Date
Minimum magnitude displayed is 2.5.

Coastal Water Temperatures

Place Temperature

Stations

Nearby Weather Stations

Station Location Temp. Windchill Dew Point Humidity Wind Precip. Elev Updated Type